Time;durP1;ratioP1;P1;durP2;ratioP2;P2;SDS_P1;SDS_P2;PMS_P1;PMS_P2;Temp;Humidity;BMP_temperature;BMP_pressure;BME280_temperature;BME280_humidity;BME280_pressure;Samples;Min_cycle;Max_cycle;Signal;HPM_P1;HPM_P2
2021/04/08 00:01:59;;;;;;;1.70;1.70;;;;;;;1.09;80.68;101932.84;5322642;26;20396;-72
2021/04/08 00:04:25;;;;;;;1.70;1.70;;;;;;;1.07;81.23;101934.56;5323304;26;20591;-72
2021/04/08 00:06:50;;;;;;;1.80;1.80;;;;;;;1.12;80.74;101939.75;5335302;26;20058;-71
2021/04/08 00:09:15;;;;;;;2.25;2.15;;;;;;;1.07;80.28;101934.56;5340781;26;20467;-73
2021/04/08 00:11:41;;;;;;;2.65;2.55;;;;;;;1.01;80.84;101931.94;5329401;26;20035;-72
2021/04/08 00:14:07;;;;;;;1.98;1.87;;;;;;;1.00;80.64;101930.19;5340500;26;20427;-71
2021/04/08 00:16:32;;;;;;;1.80;1.80;;;;;;;0.99;81.56;101937.06;5330264;26;20042;-72
2021/04/08 00:18:58;;;;;;;1.90;1.85;;;;;;;0.94;81.77;101946.53;5322801;26;20049;-72
2021/04/08 00:21:23;;;;;;;2.00;1.90;;;;;;;0.93;81.18;101946.50;5330416;26;20386;-72
2021/04/08 00:23:48;;;;;;;1.90;1.87;;;;;;;0.92;81.91;101952.53;5323033;26;20043;-71
2021/04/08 00:26:14;;;;;;;1.77;1.77;;;;;;;0.90;82.38;101951.66;5330675;26;20039;-72
2021/04/08 00:28:39;;;;;;;1.73;1.73;;;;;;;0.87;82.51;101947.31;5340956;26;20038;-73
2021/04/08 00:31:04;;;;;;;1.87;1.80;;;;;;;0.86;82.42;101965.41;5334037;26;20049;-71
2021/04/08 00:33:30;;;;;;;2.10;2.00;;;;;;;0.89;82.12;101962.84;5340834;26;20122;-70
2021/04/08 00:35:55;;;;;;;2.05;1.95;;;;;;;0.58;81.77;101904.03;5334522;26;20093;-71
2021/04/08 00:38:20;;;;;;;2.10;2.00;;;;;;;0.88;81.94;101961.09;5322170;26;20089;-71
2021/04/08 00:40:46;;;;;;;1.83;1.83;;;;;;;0.86;81.50;101965.41;5325862;26;20038;-71
2021/04/08 00:43:11;;;;;;;1.80;1.80;;;;;;;0.53;81.82;101917.75;5321182;26;20050;-73
2021/04/08 00:45:37;;;;;;;2.67;2.45;;;;;;;0.93;81.88;101968.06;5322376;26;20031;-71
2021/04/08 00:48:03;;;;;;;2.10;2.00;;;;;;;0.86;82.29;101965.41;5340837;26;20128;-71
2021/04/08 00:50:28;;;;;;;1.90;1.90;;;;;;;0.82;82.34;101969.66;5337052;26;20115;-71
2021/04/08 00:52:58;;;;;;;2.00;1.90;;;;;;;0.84;81.49;101961.94;5323551;26;20604;-71
2021/04/08 00:55:25;;;;;;;1.90;1.90;;;;;;;0.76;81.64;101955.00;5322870;26;20086;-73
2021/04/08 00:57:52;;;;;;;1.80;1.80;;;;;;;0.72;81.61;101966.16;5342781;26;20111;-72
2021/04/08 01:00:17;;;;;;;1.80;1.80;;;;;;;0.67;82.30;101960.06;5342335;26;20131;-73
2021/04/08 01:02:43;;;;;;;1.80;1.80;;;;;;;0.66;82.48;101955.78;5322828;26;20526;-71
2021/04/08 01:05:09;;;;;;;2.00;1.90;;;;;;;0.65;82.23;101956.63;5322787;26;20096;-70
2021/04/08 01:07:37;;;;;;;1.80;1.80;;;;;;;-0.09;82.70;101829.41;5343395;26;20046;-71
2021/04/08 01:10:06;;;;;;;2.00;1.90;;;;;;;0.59;81.94;101962.59;5323022;26;20097;-70
2021/04/08 01:12:32;;;;;;;1.80;1.80;;;;;;;0.10;82.30;101900.16;5322837;26;20047;-71
2021/04/08 01:14:57;;;;;;;1.75;1.75;;;;;;;0.49;82.63;101968.50;5322972;26;20351;-70
2021/04/08 01:17:26;;;;;;;1.83;1.83;;;;;;;0.10;82.92;101930.22;5344262;26;20049;-71
2021/04/08 01:20:10;;;;;;;1.80;1.80;;;;;;;0.50;83.10;101977.12;5343186;26;20043;-71
2021/04/08 01:23:08;;;;;;;1.70;1.70;;;;;;;0.49;82.40;101981.44;5383434;26;20051;-71
2021/04/08 01:25:50;;;;;;;1.73;1.73;;;;;;;0.46;82.54;101986.56;5319728;26;20042;-71
2021/04/08 01:28:35;;;;;;;1.65;1.65;;;;;;;0.60;82.17;101973.78;5364737;26;20045;-71
2021/04/08 01:31:05;;;;;;;1.62;1.62;;;;;;;0.64;82.00;101985.00;5353387;26;20047;-72
2021/04/08 01:33:35;;;;;;;1.80;1.80;;;;;;;0.67;81.54;101978.16;5322480;26;20039;-72
2021/04/08 01:36:06;;;;;;;2.00;1.90;;;;;;;0.44;81.91;101935.75;5323794;26;20039;-71
2021/04/08 01:38:33;;;;;;;2.10;2.00;;;;;;;0.34;81.65;101919.28;5322957;26;20052;-71
2021/04/08 01:40:58;;;;;;;1.62;1.62;;;;;;;0.69;81.44;101981.63;5346484;26;20886;-71
2021/04/08 01:43:28;;;;;;;2.00;1.90;;;;;;;0.67;81.10;101985.91;5341256;26;20052;-71
2021/04/08 01:45:55;;;;;;;1.87;1.85;;;;;;;0.75;81.23;101978.22;5332763;26;20145;-72
2021/04/08 01:48:20;;;;;;;2.10;2.00;;;;;;;0.71;80.63;101981.66;5323255;26;20043;-72
2021/04/08 01:50:45;;;;;;;2.22;2.12;;;;;;;0.65;81.42;101981.59;5323064;26;20100;-72
2021/04/08 01:53:12;;;;;;;1.70;1.70;;;;;;;0.71;80.89;101977.34;5322161;26;20666;-71
2021/04/08 01:55:37;;;;;;;1.80;1.80;;;;;;;0.41;81.00;101926.25;5338449;26;20482;-71
2021/04/08 01:58:03;;;;;;;1.80;1.80;;;;;;;0.69;80.94;101979.03;5323384;26;20042;-74
2021/04/08 02:00:28;;;;;;;1.77;1.77;;;;;;;0.70;80.25;101979.91;5321877;26;20049;-71
2021/04/08 02:02:55;;;;;;;2.00;1.90;;;;;;;0.67;80.80;101985.06;5322881;26;20039;-71
2021/04/08 02:05:21;;;;;;;1.75;1.75;;;;;;;0.62;80.62;101986.72;5322107;26;20469;-73
2021/04/08 02:07:46;;;;;;;1.80;1.80;;;;;;;0.59;81.06;101985.84;5322026;26;20049;-73
2021/04/08 02:10:15;;;;;;;1.73;1.73;;;;;;;0.61;80.87;101980.69;5322591;26;20051;-73
2021/04/08 02:12:44;;;;;;;1.87;1.85;;;;;;;0.49;81.07;101970.25;5322237;26;20082;-69
2021/04/08 02:15:10;;;;;;;1.73;1.73;;;;;;;0.59;80.74;101985.84;5322638;26;20043;-71
2021/04/08 02:17:35;;;;;;;1.80;1.80;;;;;;;0.70;80.23;101988.53;5321930;26;20096;-71
2021/04/08 02:20:12;;;;;;;1.87;1.85;;;;;;;0.63;80.01;101978.13;5321421;26;20452;-71
2021/04/08 02:22:45;;;;;;;2.03;1.92;;;;;;;0.63;80.61;101989.31;5345659;26;20112;-71
2021/04/08 02:25:11;;;;;;;1.80;1.80;;;;;;;0.67;80.73;101985.06;5346095;26;20037;-71
2021/04/08 02:27:38;;;;;;;2.00;1.90;;;;;;;0.75;80.10;101986.00;5344252;26;20042;-71
2021/04/08 02:30:06;;;;;;;1.83;1.83;;;;;;;0.74;79.62;101990.28;5344706;26;20057;-70
2021/04/08 02:32:31;;;;;;;1.77;1.77;;;;;;;0.77;80.54;101984.28;5345770;26;20047;-71
2021/04/08 02:34:57;;;;;;;1.70;1.70;;;;;;;0.74;80.77;101986.81;5343859;26;20049;-71
2021/04/08 02:37:22;;;;;;;1.80;1.80;;;;;;;0.67;79.89;101969.56;5340985;26;20776;-71
2021/04/08 02:39:48;;;;;;;2.85;2.42;;;;;;;0.72;80.60;101976.50;5322380;26;20045;-71
2021/04/08 02:42:13;;;;;;;1.90;1.90;;;;;;;0.71;80.52;101982.50;5338886;26;20047;-71
2021/04/08 02:44:38;;;;;;;1.80;1.80;;;;;;;0.69;80.23;101979.03;5340588;26;20039;-71
2021/04/08 02:47:04;;;;;;;1.80;1.80;;;;;;;0.65;80.03;101971.25;5322943;26;20039;-72
2021/04/08 02:49:29;;;;;;;1.80;1.80;;;;;;;0.75;80.66;101991.16;5341208;26;20068;-71
2021/04/08 02:51:58;;;;;;;1.70;1.70;;;;;;;0.36;80.93;101931.37;5327971;26;20042;-71
2021/04/08 02:54:35;;;;;;;1.80;1.80;;;;;;;0.72;80.33;101992.00;5323987;26;20043;-71
2021/04/08 02:57:01;;;;;;;1.67;1.67;;;;;;;0.73;79.86;102000.59;5341316;26;20221;-72
2021/04/08 02:59:35;;;;;;;1.50;1.50;;;;;;;0.74;80.33;101989.41;5343779;26;20042;-72
2021/04/08 03:02:12;;;;;;;2.00;1.90;;;;;;;0.61;80.25;101983.28;5339305;26;20894;-72
2021/04/08 03:04:41;;;;;;;1.50;1.50;;;;;;;0.59;80.03;101961.72;5343226;26;20585;-72
2021/04/08 03:07:07;;;;;;;1.65;1.65;;;;;;;0.82;79.52;102002.41;5348806;26;20038;-72
2021/04/08 03:09:36;;;;;;;1.65;1.65;;;;;;;0.76;79.50;101986.00;5345359;26;20048;-73
2021/04/08 03:12:04;;;;;;;1.70;1.70;;;;;;;0.75;79.13;101993.75;5347339;26;20206;-72
2021/04/08 03:14:32;;;;;;;1.70;1.70;;;;;;;0.66;79.45;101984.19;5345862;26;20042;-72
2021/04/08 03:16:57;;;;;;;1.80;1.80;;;;;;;0.26;80.33;101924.41;5341797;26;20027;-73
2021/04/08 03:19:23;;;;;;;1.70;1.70;;;;;;;0.61;79.59;101972.94;5343754;26;20738;-73
2021/04/08 03:21:49;;;;;;;2.10;2.00;;;;;;;0.70;79.38;101991.12;5324949;26;20158;-73
2021/04/08 03:24:14;;;;;;;1.70;1.70;;;;;;;0.71;79.39;101992.84;5319577;26;20049;-72
2021/04/08 03:26:39;;;;;;;1.67;1.67;;;;;;;0.70;79.30;102010.91;5335241;26;20038;-72
2021/04/08 03:29:05;;;;;;;1.85;1.83;;;;;;;0.56;79.57;101980.66;5341589;26;20370;-72
2021/04/08 03:31:30;;;;;;;1.80;1.80;;;;;;;0.70;79.40;102003.16;5325527;26;20125;-72
2021/04/08 03:33:56;;;;;;;1.80;1.80;;;;;;;0.79;78.80;102004.09;5320065;26;20387;-72
2021/04/08 03:36:21;;;;;;;1.80;1.80;;;;;;;0.72;78.88;102004.91;5331363;26;20366;-72
2021/04/08 03:38:46;;;;;;;1.80;1.80;;;;;;;0.81;79.29;102006.72;5340921;26;20053;-73
2021/04/08 03:41:12;;;;;;;1.75;1.75;;;;;;;0.75;79.54;102004.94;5342073;26;20034;-72
2021/04/08 03:43:37;;;;;;;2.00;1.90;;;;;;;0.74;79.28;102010.97;5342132;26;20350;-73
2021/04/08 03:46:03;;;;;;;1.60;1.60;;;;;;;0.74;79.56;102012.66;5343306;26;20557;-72
2021/04/08 03:48:29;;;;;;;1.60;1.60;;;;;;;0.75;79.28;102017.00;5342792;26;20038;-72
2021/04/08 03:50:55;;;;;;;1.80;1.80;;;;;;;0.72;79.27;102001.44;5333923;26;20038;-72
2021/04/08 03:53:21;;;;;;;1.80;1.80;;;;;;;0.77;78.95;102012.72;5321937;26;20059;-72
2021/04/08 03:55:47;;;;;;;1.70;1.70;;;;;;;0.77;79.11;102018.72;5330029;26;20507;-71
2021/04/08 03:58:12;;;;;;;1.80;1.80;;;;;;;-0.24;79.38;101832.69;5341315;26;20103;-72
2021/04/08 04:00:38;;;;;;;1.80;1.80;;;;;;;0.78;79.78;102017.91;5333962;26;20046;-72
2021/04/08 04:03:04;;;;;;;1.80;1.80;;;;;;;0.76;79.78;102019.59;5319337;26;20034;-72
2021/04/08 04:05:29;;;;;;;2.03;1.92;;;;;;;0.79;80.12;102017.03;5322590;26;20046;-72
2021/04/08 04:07:55;;;;;;;1.70;1.70;;;;;;;0.80;79.02;102012.72;5341009;26;20038;-72
2021/04/08 04:10:21;;;;;;;1.60;1.60;;;;;;;0.71;78.61;101989.41;5340726;26;20057;-72
2021/04/08 04:12:50;;;;;;;2.10;2.00;;;;;;;0.87;78.72;102008.50;5340482;26;20038;-73
2021/04/08 04:15:16;;;;;;;1.62;1.62;;;;;;;0.80;78.53;102017.88;5342575;26;20042;-72
2021/04/08 04:17:41;;;;;;;1.80;1.80;;;;;;;0.77;78.89;102021.31;5341372;26;20038;-72
2021/04/08 04:20:07;;;;;;;1.85;1.85;;;;;;;0.69;78.70;102012.63;5339635;26;20039;-73
2021/04/08 04:22:33;;;;;;;2.10;2.00;;;;;;;0.68;78.98;102016.06;5339066;26;20035;-71
2021/04/08 04:24:58;;;;;;;1.70;1.70;;;;;;;0.70;79.13;102016.97;5341396;26;20050;-72
2021/04/08 04:27:24;;;;;;;1.80;1.80;;;;;;;0.66;79.26;102020.37;5339926;26;20042;-72
2021/04/08 04:29:49;;;;;;;1.70;1.70;;;;;;;0.62;79.30;102020.28;5342094;26;20089;-72
2021/04/08 04:32:15;;;;;;;2.08;1.98;;;;;;;0.56;79.01;102027.16;5342018;26;20038;-71
2021/04/08 04:34:41;;;;;;;2.00;1.90;;;;;;;0.52;79.77;102015.06;5342234;26;20489;-72
2021/04/08 04:37:06;;;;;;;1.70;1.70;;;;;;;0.56;79.46;102023.66;5322111;26;20058;-72
2021/04/08 04:39:32;;;;;;;1.80;1.80;;;;;;;0.55;78.44;102027.13;5319530;26;20383;-72
2021/04/08 04:41:58;;;;;;;2.00;1.90;;;;;;;0.54;79.29;102030.53;5337289;26;20051;-72
2021/04/08 04:44:24;;;;;;;1.80;1.80;;;;;;;0.50;79.43;102021.91;5342171;26;20038;-72
2021/04/08 04:46:50;;;;;;;1.90;1.80;;;;;;;0.55;78.14;102027.97;5324068;26;20173;-71
2021/04/08 04:49:15;;;;;;;2.00;1.90;;;;;;;-0.30;78.63;101883.34;5317374;26;20100;-73
2021/04/08 04:51:41;;;;;;;2.00;1.90;;;;;;;0.58;78.67;102028.03;5334548;26;20039;-72
2021/04/08 04:54:06;;;;;;;1.92;1.87;;;;;;;0.55;79.05;102033.16;5341280;26;20053;-72
2021/04/08 04:56:31;;;;;;;1.70;1.70;;;;;;;-0.04;78.41;101941.28;5341062;26;20041;-72
2021/04/08 04:58:57;;;;;;;1.77;1.77;;;;;;;0.56;78.99;102034.91;5342015;26;20035;-72
2021/04/08 05:01:22;;;;;;;1.90;1.80;;;;;;;0.55;78.42;102040.03;5328177;26;20111;-74
2021/04/08 05:03:47;;;;;;;1.98;1.87;;;;;;;0.55;78.17;102040.03;5319491;26;20056;-73
2021/04/08 05:06:13;;;;;;;2.05;1.95;;;;;;;0.58;78.19;102040.94;5329590;26;20045;-73
2021/04/08 05:08:38;;;;;;;2.00;1.90;;;;;;;0.60;78.82;102051.28;5341082;26;20043;-72
2021/04/08 05:11:04;;;;;;;2.75;2.55;;;;;;;0.62;78.74;102047.00;5340423;26;20046;-72
2021/04/08 05:13:29;;;;;;;2.00;1.90;;;;;;;0.65;78.75;102053.94;5340680;26;20035;-73
2021/04/08 05:15:54;;;;;;;1.77;1.77;;;;;;;0.69;78.40;102050.53;5340879;26;20516;-73
2021/04/08 05:18:20;;;;;;;2.00;1.90;;;;;;;0.53;78.56;102021.06;5360329;26;20039;-73
2021/04/08 05:20:45;;;;;;;1.98;1.90;;;;;;;0.76;78.90;102052.31;5340461;26;20590;-72
2021/04/08 05:23:10;;;;;;;1.85;1.80;;;;;;;0.67;78.01;102036.72;5341472;26;20353;-73
2021/04/08 05:25:36;;;;;;;2.00;1.90;;;;;;;0.79;77.34;102058.38;5340844;26;20069;-74
2021/04/08 05:28:01;;;;;;;2.08;1.98;;;;;;;0.85;77.36;102061.88;5341112;26;20043;-73
2021/04/08 05:30:26;;;;;;;1.80;1.80;;;;;;;0.82;77.87;102057.53;5341491;26;20234;-75
2021/04/08 05:32:52;;;;;;;2.08;1.98;;;;;;;0.84;76.67;102054.97;5342558;26;20051;-73
2021/04/08 05:35:19;;;;;;;2.05;1.95;;;;;;;0.63;77.35;102016.87;5340655;26;20129;-75
2021/04/08 05:37:44;;;;;;;2.00;1.90;;;;;;;0.86;76.81;102048.94;5342211;26;20047;-72
2021/04/08 05:40:10;;;;;;;2.10;2.00;;;;;;;0.84;76.48;102032.56;5330701;26;20034;-72
2021/04/08 05:42:35;;;;;;;2.10;2.00;;;;;;;0.99;76.59;102061.16;5338056;26;20070;-71
2021/04/08 05:45:01;;;;;;;1.90;1.85;;;;;;;1.04;76.22;102063.78;5340340;26;20493;-73
2021/04/08 05:47:26;;;;;;;2.05;1.95;;;;;;;1.11;76.31;102069.88;5334934;26;20039;-73
2021/04/08 05:49:51;;;;;;;2.10;2.00;;;;;;;1.13;75.84;102063.00;5314996;26;20146;-74
2021/04/08 05:52:17;;;;;;;2.50;2.40;;;;;;;1.21;75.94;102060.50;5316663;26;20161;-72
2021/04/08 05:54:42;;;;;;;2.12;2.03;;;;;;;1.35;76.07;102071.81;5335548;26;20914;-71
2021/04/08 05:57:08;;;;;;;2.97;2.37;;;;;;;1.41;76.03;102079.62;5334799;26;20057;-72
2021/04/08 05:59:33;;;;;;;1.95;1.87;;;;;;;1.35;75.39;102076.97;5335276;26;20046;-71
2021/04/08 06:01:58;;;;;;;2.10;2.00;;;;;;;1.50;74.51;102074.50;5319368;26;20529;-72
2021/04/08 06:04:24;;;;;;;2.12;2.03;;;;;;;1.59;74.61;102073.72;5317187;26;20043;-74
2021/04/08 06:06:49;;;;;;;2.00;1.90;;;;;;;1.61;74.65;102082.34;5331206;26;20096;-73
2021/04/08 06:09:14;;;;;;;2.10;2.00;;;;;;;1.72;73.87;102085.88;5316974;26;20035;-72
2021/04/08 06:11:40;;;;;;;2.00;1.90;;;;;;;1.78;73.38;102074.69;5329050;26;20131;-73
2021/04/08 06:14:05;;;;;;;2.00;1.90;;;;;;;1.92;73.34;102086.00;5317642;26;20213;-72
2021/04/08 06:16:31;;;;;;;2.05;1.95;;;;;;;2.02;73.92;102083.47;5326561;26;20059;-72
2021/04/08 06:18:56;;;;;;;2.00;1.90;;;;;;;1.97;73.69;102058.44;5336731;26;20068;-73
2021/04/08 06:21:21;;;;;;;2.10;2.00;;;;;;;2.19;73.32;102089.62;5326945;26;20877;-73
2021/04/08 06:23:47;;;;;;;3.67;3.55;;;;;;;2.24;73.57;102087.91;5314941;26;20051;-73
2021/04/08 06:26:12;;;;;;;2.00;1.90;;;;;;;2.28;72.56;102078.41;5321523;26;20058;-73
2021/04/08 06:28:37;;;;;;;2.10;2.00;;;;;;;2.43;73.05;102095.78;5315979;26;20039;-72
2021/04/08 06:31:03;;;;;;;2.10;2.00;;;;;;;2.28;71.22;102074.09;5321716;26;20039;-72
2021/04/08 06:33:28;;;;;;;2.08;1.98;;;;;;;1.51;71.40;101946.03;5318138;26;20077;-71
2021/04/08 06:35:53;;;;;;;2.10;2.00;;;;;;;2.53;71.92;102087.16;5320712;26;20046;-72
2021/04/08 06:38:19;;;;;;;2.10;2.00;;;;;;;2.65;71.14;102088.94;5335868;26;20501;-72
2021/04/08 06:40:44;;;;;;;2.05;1.95;;;;;;;2.56;69.71;102087.16;5333463;26;20038;-71
2021/04/08 06:43:11;;;;;;;2.20;2.10;;;;;;;2.51;69.57;102065.56;5317299;26;20099;-72
2021/04/08 06:45:38;;;;;;;2.50;2.40;;;;;;;2.74;68.86;102099.31;5313369;26;20520;-72
2021/04/08 06:48:19;;;;;;;2.10;2.00;;;;;;;2.95;69.61;102096.78;5336777;26;20557;-72
2021/04/08 06:50:46;;;;;;;2.47;2.37;;;;;;;3.09;67.98;102096.81;5335385;26;20034;-73
2021/04/08 06:53:11;;;;;;;2.30;2.20;;;;;;;3.16;68.04;102106.31;5336468;26;20055;-72
2021/04/08 06:55:36;;;;;;;2.40;2.30;;;;;;;3.24;68.21;102102.88;5334314;26;20145;-73
2021/04/08 06:58:03;;;;;;;2.00;1.90;;;;;;;3.18;67.79;102109.78;5338549;26;20061;-72
2021/04/08 07:00:28;;;;;;;2.30;2.20;;;;;;;3.20;66.75;102104.59;5335538;26;20077;-73
2021/04/08 07:02:54;;;;;;;2.40;2.30;;;;;;;3.44;67.06;102111.53;5318370;26;20537;-72
2021/04/08 07:05:19;;;;;;;2.10;2.00;;;;;;;2.33;66.30;101948.06;5319384;26;20040;-73
2021/04/08 07:07:45;;;;;;;2.10;2.00;;;;;;;3.65;67.10;102113.25;5339943;26;20043;-72
2021/04/08 07:10:10;;;;;;;2.40;2.30;;;;;;;3.75;66.38;102109.78;5339526;26;20425;-74
2021/04/08 07:12:35;;;;;;;2.62;2.53;;;;;;;3.83;65.02;102111.50;5338794;26;20055;-74
2021/04/08 07:15:01;;;;;;;2.12;2.03;;;;;;;3.52;64.26;102093.38;5340199;26;20232;-72
2021/04/08 07:17:27;;;;;;;2.30;2.20;;;;;;;3.79;65.07;102121.03;5338592;26;20058;-72
2021/04/08 07:19:54;;;;;;;2.30;2.20;;;;;;;3.92;65.43;102122.75;5338957;26;20072;-73
2021/04/08 07:22:20;;;;;;;2.70;2.60;;;;;;;4.15;65.00;102111.41;5318431;26;20536;-72
2021/04/08 07:24:46;;;;;;;2.60;2.50;;;;;;;4.20;64.44;102117.50;5317121;26;20044;-72
2021/04/08 07:27:17;;;;;;;2.50;2.40;;;;;;;4.00;61.33;102118.37;5336851;26;20073;-72
2021/04/08 07:29:44;;;;;;;2.20;2.10;;;;;;;4.23;63.67;102121.81;5341780;26;20055;-74
2021/04/08 07:32:34;;;;;;;2.50;2.40;;;;;;;4.47;62.22;102124.34;5319537;26;20054;-74
2021/04/08 07:35:09;;;;;;;2.25;2.15;;;;;;;4.32;62.23;102083.66;5319974;26;20057;-74
2021/04/08 07:37:35;;;;;;;2.40;2.30;;;;;;;3.95;61.02;102057.81;5336856;26;20058;-73
2021/04/08 07:40:23;;;;;;;2.42;2.33;;;;;;;4.46;62.31;102130.41;5315179;26;20043;-73
2021/04/08 07:42:48;;;;;;;2.40;2.30;;;;;;;4.79;62.65;102132.00;5337334;26;20039;-72
2021/04/08 07:45:33;;;;;;;2.70;2.60;;;;;;;4.79;58.80;102128.50;5316064;26;20054;-73
2021/04/08 07:47:59;;;;;;;2.40;2.30;;;;;;;4.93;58.70;102126.72;5311637;26;20371;-73
2021/04/08 07:50:24;;;;;;;2.40;2.30;;;;;;;4.75;59.50;102125.09;5337320;26;20069;-73
2021/04/08 07:52:50;;;;;;;2.60;2.50;;;;;;;4.85;56.55;102132.81;5318797;26;20065;-74
2021/04/08 07:55:35;;;;;;;2.83;2.72;;;;;;;5.03;58.15;102126.66;5319666;26;20061;-73
2021/04/08 07:58:13;;;;;;;2.30;2.20;;;;;;;5.31;57.29;102130.81;5339085;26;20051;-72
2021/04/08 08:00:40;;;;;;;2.60;2.50;;;;;;;4.89;55.09;102064.28;5334221;26;20371;-73
2021/04/08 08:03:07;;;;;;;2.50;2.40;;;;;;;5.04;56.63;102131.84;5336565;26;20125;-73
2021/04/08 08:05:36;;;;;;;2.60;2.50;;;;;;;5.17;56.40;102130.91;5336329;26;20420;-74
2021/04/08 08:08:14;;;;;;;2.72;2.62;;;;;;;5.43;56.13;102142.84;5355587;26;20494;-72
2021/04/08 08:10:53;;;;;;;2.50;2.40;;;;;;;5.15;54.42;102140.47;5363557;26;20116;-72
2021/04/08 08:13:27;;;;;;;2.60;2.50;;;;;;;5.64;56.34;102133.16;5320833;26;20053;-72
2021/04/08 08:15:55;;;;;;;2.95;2.85;;;;;;;5.82;55.32;102140.81;5318447;26;20167;-74
2021/04/08 08:18:41;;;;;;;2.60;2.50;;;;;;;5.98;53.70;102139.81;5319742;26;20042;-74
2021/04/08 08:21:10;;;;;;;2.42;2.33;;;;;;;6.29;52.59;102131.66;5318895;26;20054;-74
2021/04/08 08:23:46;;;;;;;2.50;2.40;;;;;;;6.34;52.36;102135.09;5355612;26;20249;-73
2021/04/08 08:26:34;;;;;;;2.40;2.30;;;;;;;5.83;52.53;102142.50;5320905;26;20736;-74
2021/04/08 08:29:08;;;;;;;2.60;2.50;;;;;;;5.78;49.86;102149.53;5337080;26;20039;-74
2021/04/08 08:31:39;;;;;;;2.42;2.33;;;;;;;5.91;51.76;102142.44;5357332;26;20043;-74
2021/04/08 08:34:08;;;;;;;2.50;2.40;;;;;;;6.07;50.64;102149.25;5320223;26;20130;-74
2021/04/08 08:36:33;;;;;;;2.85;2.75;;;;;;;6.19;49.09;102136.13;5319005;26;20481;-73
2021/04/08 08:39:00;;;;;;;2.60;2.50;;;;;;;6.19;49.98;102138.75;5320154;26;20039;-72
2021/04/08 08:41:26;;;;;;;2.62;2.53;;;;;;;6.41;49.38;102127.19;5319772;26;20040;-75
2021/04/08 08:43:52;;;;;;;2.62;2.53;;;;;;;6.07;47.35;102146.66;5321790;26;20039;-73
2021/04/08 08:46:17;;;;;;;2.50;2.40;;;;;;;5.70;46.65;102133.97;5321145;26;20043;-73
2021/04/08 08:48:43;;;;;;;2.67;2.58;;;;;;;5.56;50.98;102141.03;5338106;26;20524;-72
2021/04/08 08:51:08;;;;;;;2.50;2.40;;;;;;;5.43;48.24;102145.44;5330691;26;20038;-71
2021/04/08 08:53:33;;;;;;;2.40;2.30;;;;;;;5.15;49.54;102147.38;5336314;26;20047;-73
2021/04/08 08:55:59;;;;;;;2.65;2.55;;;;;;;5.64;49.57;102141.81;5338523;26;20097;-73
2021/04/08 08:58:24;;;;;;;2.40;2.30;;;;;;;5.67;49.77;102148.75;5339008;26;20493;-72
2021/04/08 09:00:49;;;;;;;2.50;2.40;;;;;;;5.42;48.36;102135.06;5342003;26;20050;-73
2021/04/08 09:03:15;;;;;;;2.50;2.40;;;;;;;5.82;49.01;102142.56;5345164;26;20043;-71
2021/04/08 09:05:40;;;;;;;2.47;2.37;;;;;;;6.12;47.71;102142.28;5337173;26;20180;-72
2021/04/08 09:08:11;;;;;;;2.40;2.30;;;;;;;6.29;46.62;102149.03;5339265;26;20521;-70
2021/04/08 09:10:38;;;;;;;2.58;2.47;;;;;;;6.52;46.57;102140.97;5335301;26;20051;-69
2021/04/08 09:13:04;;;;;;;2.53;2.42;;;;;;;6.76;43.57;102135.44;5335441;26;20065;-73
2021/04/08 09:15:30;;;;;;;2.60;2.50;;;;;;;6.91;45.62;102152.63;5336761;26;20051;-74
2021/04/08 09:17:57;;;;;;;2.90;2.80;;;;;;;6.84;43.53;102134.50;5314574;26;20141;-76
2021/04/08 09:20:23;;;;;;;2.40;2.30;;;;;;;6.37;44.09;102168.06;5320122;26;20042;-75
2021/04/08 09:22:59;;;;;;;2.80;2.70;;;;;;;6.88;45.40;102144.84;5322864;26;20397;-74
2021/04/08 09:25:28;;;;;;;2.45;2.35;;;;;;;6.94;41.79;102143.91;5338839;26;20766;-75
2021/04/08 09:27:57;;;;;;;2.60;2.50;;;;;;;6.61;43.88;102151.28;5342072;26;20050;-76
2021/04/08 09:30:43;;;;;;;2.58;2.47;;;;;;;6.85;42.67;102138.81;5322900;26;20062;-76
2021/04/08 09:33:10;;;;;;;2.62;2.53;;;;;;;7.10;42.72;102141.94;5326089;26;20085;-75
2021/04/08 09:35:35;;;;;;;2.50;2.40;;;;;;;7.57;42.63;102141.19;5323022;26;20058;-75
2021/04/08 09:38:00;;;;;;;2.58;2.47;;;;;;;6.80;41.25;102141.47;5322684;26;20070;-76
2021/04/08 09:40:28;;;;;;;2.80;2.70;;;;;;;7.12;43.00;102133.19;5359634;26;20051;-76
2021/04/08 09:43:04;;;;;;;2.62;2.53;;;;;;;7.51;41.68;102133.47;5359990;26;20049;-76
2021/04/08 09:45:30;;;;;;;2.60;2.50;;;;;;;7.61;38.39;102135.94;5340360;26;20636;-74
2021/04/08 09:48:19;;;;;;;2.80;2.70;;;;;;;7.75;38.63;102115.66;5322080;26;20049;-73
2021/04/08 09:50:52;;;;;;;2.87;2.78;;;;;;;7.64;39.24;102122.78;5320426;26;20047;-73
2021/04/08 09:53:19;;;;;;;4.37;4.18;;;;;;;7.28;39.61;102122.53;5335764;26;20039;-73
2021/04/08 09:55:57;;;;;;;3.03;2.92;;;;;;;7.90;39.81;102124.97;5337319;26;20039;-73
2021/04/08 09:58:34;;;;;;;2.62;2.53;;;;;;;7.63;36.42;102119.34;5320008;26;20493;-73
2021/04/08 10:01:01;;;;;;;2.80;2.70;;;;;;;7.63;35.87;102110.63;5318301;26;20061;-73
2021/04/08 10:03:30;;;;;;;2.65;2.55;;;;;;;8.04;35.71;102120.34;5337166;26;20039;-73
2021/04/08 10:05:56;;;;;;;3.03;2.92;;;;;;;7.75;32.80;102111.28;5337580;26;20043;-74
2021/04/08 10:08:22;;;;;;;2.70;2.60;;;;;;;7.38;35.45;102117.13;5317568;26;20169;-73
2021/04/08 10:10:47;;;;;;;2.80;2.70;;;;;;;7.41;36.54;102117.97;5319630;26;20055;-73
2021/04/08 10:13:13;;;;;;;2.80;2.70;;;;;;;7.28;35.58;102120.78;5356854;26;20053;-72
2021/04/08 10:15:38;;;;;;;2.72;2.62;;;;;;;6.72;34.06;102093.75;5354632;26;20146;-73
2021/04/08 10:18:09;;;;;;;2.85;2.75;;;;;;;6.97;34.92;102123.81;5319662;26;20120;-73
2021/04/08 10:20:36;;;;;;;2.90;2.80;;;;;;;6.61;33.19;102116.50;5321004;26;20043;-74
2021/04/08 10:23:01;;;;;;;2.70;2.60;;;;;;;6.82;35.57;102120.59;5321201;26;20334;-74
2021/04/08 10:25:27;;;;;;;2.50;2.40;;;;;;;6.88;36.09;102112.69;5324021;26;20404;-73
2021/04/08 10:27:55;;;;;;;2.75;2.65;;;;;;;6.79;35.50;102111.03;5324148;26;20030;-73
2021/04/08 10:30:21;;;;;;;2.90;2.80;;;;;;;7.18;37.30;102095.69;5323077;26;20595;-73
2021/04/08 10:32:46;;;;;;;2.80;2.70;;;;;;;8.08;38.00;102108.94;5324794;26;20042;-74
2021/04/08 10:35:22;;;;;;;2.65;2.55;;;;;;;6.51;35.24;101821.91;5324037;26;20409;-74
2021/04/08 10:38:01;;;;;;;2.83;2.72;;;;;;;8.07;35.39;102103.75;5323064;26;20053;-74
2021/04/08 10:40:26;;;;;;;3.10;3.00;;;;;;;7.80;34.18;102095.53;5340113;26;20711;-73
2021/04/08 10:42:52;;;;;;;2.95;2.85;;;;;;;7.69;33.94;102103.53;5321310;26;20034;-74
2021/04/08 10:45:17;;;;;;;2.70;2.60;;;;;;;7.79;36.11;102109.47;5321955;26;20043;-74
2021/04/08 10:47:43;;;;;;;3.00;2.90;;;;;;;8.14;37.03;102097.53;5319791;26;20094;-74
2021/04/08 10:50:09;;;;;;;3.00;2.90;;;;;;;8.11;35.69;102090.56;5320273;26;20506;-75
2021/04/08 10:52:36;;;;;;;2.80;2.70;;;;;;;8.58;36.26;102109.72;5338741;26;20148;-74
2021/04/08 10:55:18;;;;;;;2.70;2.60;;;;;;;8.38;34.67;102107.47;4503795;31;20422;-66
2021/04/08 10:57:43;;;;;;;2.85;2.75;;;;;;;8.23;34.35;102099.06;4466861;31;20114;-68
2021/04/08 11:00:10;;;;;;;2.72;2.62;;;;;;;7.95;34.93;102105.69;4455292;31;20067;-68
2021/04/08 11:02:40;;;;;;;2.78;2.67;;;;;;;7.64;34.85;102107.13;4459274;31;20079;-67
2021/04/08 11:05:18;;;;;;;2.80;2.70;;;;;;;7.85;35.86;102064.94;4451833;31;20075;-67
2021/04/08 11:07:46;;;;;;;2.90;2.80;;;;;;;8.03;34.99;102091.63;4464410;31;20084;-67
2021/04/08 11:10:26;;;;;;;2.70;2.60;;;;;;;8.29;36.20;102071.03;4455660;31;20106;-68
2021/04/08 11:12:52;;;;;;;3.08;2.97;;;;;;;8.96;35.01;102094.94;4455526;31;20086;-65
2021/04/08 11:15:21;;;;;;;2.90;2.80;;;;;;;8.95;34.79;102094.94;4454260;31;20170;-66
2021/04/08 11:17:48;;;;;;;3.05;2.95;;;;;;;8.58;33.13;102085.31;4453571;31;20068;-66
2021/04/08 11:20:14;;;;;;;2.80;2.70;;;;;;;8.68;34.62;102102.53;4477825;31;20167;-67
2021/04/08 11:22:46;;;;;;;3.20;3.05;;;;;;;8.16;33.77;102095.72;4453720;31;20249;-66
2021/04/08 11:25:13;;;;;;;2.97;2.87;;;;;;;7.77;34.63;102106.03;4464061;31;20619;-68
2021/04/08 11:27:40;;;;;;;2.90;2.80;;;;;;;7.53;35.56;102031.56;4465727;31;20068;-66
2021/04/08 11:30:07;;;;;;;2.85;2.75;;;;;;;7.18;35.48;102098.31;4469147;31;20079;-69
2021/04/08 11:32:46;;;;;;;2.87;2.78;;;;;;;7.05;36.72;102089.78;4450706;31;20086;-69
2021/04/08 11:35:31;;;;;;;2.60;2.50;;;;;;;7.70;37.38;102093.97;4453295;31;20225;-67
2021/04/08 11:38:18;;;;;;;2.80;2.70;;;;;;;7.70;34.69;102086.12;4478791;31;20079;-67